Archival Weather

Snohomish County (Paine Fld)

Everett, Washington (KPAE)

Report from: Wednesday, November 22, 2023 1:53 PM PST
Current time: Monday, June 17, 2024 1:49 AM PDT

Current weather – Weather history – Daily summaries
Weather forecast

Temperature8.9°C (48.0°F)
Wind chill6.9°C (44.3°F)
Dew point4.4°C (39.9°F)
Winds 7 kts (3.6 m/s, 8.1 mph) North-Northwest (330°)
Visibility10 mi. (16.1 km)
Clouds Sky clear
Altimeter30.40 in.Hg (1029 mB)
Relative humidity73 %
Density altitude-1,157 ft. (-353 m)
Sea-level pressure103.0 kPa (1030 mB, 30.40 in.Hg)
Remarks Automated weather observing station with precipitation discriminator
Flight conditions Visual Meteorological Conditions
Raw dataKPAE 222153Z 33007KT 10SM CLR 09/04 A3040 RMK AO2 SLP295 T00890044
An error has occurred. This application may no longer respond until reloaded. Reload 🗙